createdAt,value
2022-08-27T00:02:20.602Z,99312.19
2022-08-27T00:04:50.994Z,99317.25
2022-08-27T00:07:19.603Z,99320.25
2022-08-27T00:09:47.708Z,99312.22
2022-08-27T00:12:16.240Z,99319.81
2022-08-27T00:14:44.459Z,99319.25
2022-08-27T00:17:13.000Z,99319.81
2022-08-27T00:19:42.456Z,99319.34
2022-08-27T00:22:12.019Z,99323.13
2022-08-27T00:24:46.404Z,99326.25
2022-08-27T00:27:18.526Z,99318.53
2022-08-27T00:29:48.202Z,99331.19
2022-08-27T00:32:16.758Z,99324.81
2022-08-27T00:34:45.523Z,99328.88
2022-08-27T00:37:14.590Z,99327.78
2022-08-27T00:39:42.728Z,99327.44
2022-08-27T00:42:12.062Z,99323.53
2022-08-27T00:44:40.314Z,99322.84
2022-08-27T00:47:17.344Z,99326.59
2022-08-27T00:49:56.305Z,99327.50
2022-08-27T00:52:29.882Z,99325.41
2022-08-27T00:55:08.598Z,99325.06
2022-08-27T00:57:39.171Z,99330.50
2022-08-27T01:00:14.377Z,99322.53
2022-08-27T01:02:43.587Z,99323.22
2022-08-27T01:05:15.764Z,99332.03
2022-08-27T01:07:47.891Z,99333.62
2022-08-27T01:10:20.108Z,99337.44
2022-08-27T01:12:53.692Z,99339.63
2022-08-27T01:15:24.731Z,99344.91
2022-08-27T01:17:53.960Z,99347.88
2022-08-27T01:20:31.122Z,99341.72
2022-08-27T01:23:02.627Z,99344.81
2022-08-27T01:25:31.584Z,99354.78
2022-08-27T01:28:01.861Z,99352.94
2022-08-27T01:30:31.428Z,99337.28
2022-08-27T01:32:59.974Z,99345.59
2022-08-27T01:35:28.306Z,99340.22
2022-08-27T01:37:57.068Z,99343.31
2022-08-27T01:40:25.856Z,99346.09
2022-08-27T01:42:56.726Z,99350.41
2022-08-27T01:45:34.060Z,99346.09
2022-08-27T01:48:03.151Z,99340.81
2022-08-27T01:50:38.846Z,99341.38
2022-08-27T01:53:15.218Z,99353.69
2022-08-27T01:55:47.533Z,99349.97
2022-08-27T01:58:18.621Z,99344.41
2022-08-27T02:00:56.136Z,99353.28
2022-08-27T02:03:25.537Z,99347.09
2022-08-27T02:05:54.754Z,99344.34
2022-08-27T02:08:22.870Z,99345.31
2022-08-27T02:10:51.918Z,99350.47
2022-08-27T02:13:20.592Z,99350.94
2022-08-27T02:15:48.997Z,99348.91
2022-08-27T02:18:18.214Z,99355.25
2022-08-27T02:20:48.127Z,99351.91
2022-08-27T02:23:19.268Z,99349.12
2022-08-27T02:25:47.835Z,99347.31
2022-08-27T02:28:16.659Z,99346.78
2022-08-27T02:30:44.947Z,99345.37
2022-08-27T02:33:13.604Z,99338.00
2022-08-27T02:35:44.199Z,99344.31
2022-08-27T02:38:14.183Z,99341.03
2022-08-27T02:40:42.807Z,99325.72
2022-08-27T02:43:15.830Z,99327.38
2022-08-27T02:45:44.928Z,99332.44
2022-08-27T02:48:13.669Z,99330.44
2022-08-27T02:50:43.630Z,99334.06
2022-08-27T02:53:12.225Z,99325.75
2022-08-27T02:55:40.532Z,99333.78
2022-08-27T02:58:09.718Z,99336.19
2022-08-27T03:00:38.493Z,99337.37
2022-08-27T03:03:06.822Z,99330.75
2022-08-27T03:05:35.055Z,99324.41
2022-08-27T03:08:05.590Z,99333.28
2022-08-27T03:10:33.819Z,99330.13
2022-08-27T03:13:02.223Z,99336.94
2022-08-27T03:15:30.705Z,99333.50
2022-08-27T03:18:17.542Z,99337.16
2022-08-27T03:20:53.451Z,99343.84
2022-08-27T03:23:25.080Z,99332.31
2022-08-27T03:25:56.882Z,99347.50
2022-08-27T03:28:28.678Z,99346.31
2022-08-27T03:31:03.408Z,99336.53
2022-08-27T03:33:38.095Z,99337.81
2022-08-27T03:36:08.983Z,99335.59
2022-08-27T03:38:38.075Z,99334.22
2022-08-27T03:41:06.693Z,99331.94
2022-08-27T03:43:36.048Z,99335.59
2022-08-27T03:46:04.198Z,99335.47
2022-08-27T03:48:34.258Z,99337.44
2022-08-27T03:51:12.293Z,99338.69
2022-08-27T03:53:42.649Z,99335.22
2022-08-27T03:56:11.359Z,99333.19
2022-08-27T03:58:39.853Z,99338.09
2022-08-27T04:01:08.925Z,99338.66
2022-08-27T04:03:37.914Z,99333.78
2022-08-27T04:06:06.539Z,99330.03
2022-08-27T04:08:34.740Z,99339.00
2022-08-27T04:11:07.985Z,99341.47
2022-08-27T04:13:36.924Z,99343.44
2022-08-27T04:16:05.973Z,99328.84
2022-08-27T04:18:34.337Z,99338.56
2022-08-27T04:21:13.887Z,99339.56
2022-08-27T04:23:43.427Z,99341.78
2022-08-27T04:26:14.902Z,99331.75
2022-08-27T04:28:46.643Z,99340.19
2022-08-27T04:31:17.481Z,99340.03
2022-08-27T04:33:50.694Z,99337.28
2022-08-27T04:36:20.584Z,99340.38
2022-08-27T04:38:49.794Z,99350.38
2022-08-27T04:41:21.523Z,99344.81
2022-08-27T04:43:58.841Z,99339.84
2022-08-27T04:46:30.587Z,99351.22
2022-08-27T04:49:02.729Z,99344.81
2022-08-27T04:51:35.736Z,99340.94
2022-08-27T04:54:06.717Z,99345.78
2022-08-27T04:56:36.466Z,99346.22
2022-08-27T04:59:08.142Z,99352.22
2022-08-27T05:01:38.471Z,99347.94
2022-08-27T05:04:07.902Z,99343.91
2022-08-27T05:06:36.932Z,99349.19
2022-08-27T05:09:06.183Z,99350.50
2022-08-27T05:11:34.990Z,99353.28
2022-08-27T05:14:10.021Z,99348.56
2022-08-27T05:16:39.424Z,99359.19
2022-08-27T05:19:10.431Z,99368.56
2022-08-27T05:21:43.317Z,99359.69
2022-08-27T05:24:11.746Z,99357.31
2022-08-27T05:26:40.239Z,99355.50
2022-08-27T05:29:08.574Z,99349.91
2022-08-27T05:31:37.889Z,99352.78
2022-08-27T05:34:10.540Z,99356.38
2022-08-27T05:36:48.766Z,99364.25
2022-08-27T05:39:17.860Z,99358.78
2022-08-27T05:41:46.162Z,99358.44
2022-08-27T05:47:04.097Z,99350.00
2022-08-27T05:49:32.455Z,99355.19
2022-08-27T05:52:00.578Z,99353.28
2022-08-27T05:54:29.044Z,99350.34
2022-08-27T05:56:57.302Z,99351.38
2022-08-27T05:59:44.153Z,99348.78
2022-08-27T06:02:12.781Z,99356.88
2022-08-27T06:04:41.370Z,99356.00
2022-08-27T06:07:10.612Z,99352.81
2022-08-27T06:09:39.582Z,99360.78
2022-08-27T06:12:09.204Z,99364.81
2022-08-27T06:14:38.349Z,99354.25
2022-08-27T06:17:06.744Z,99357.22
2022-08-27T06:19:36.457Z,99362.50
2022-08-27T06:22:10.640Z,99364.09
2022-08-27T06:24:42.129Z,99358.72
2022-08-27T06:27:14.294Z,99363.50
2022-08-27T06:29:44.234Z,99364.94
2022-08-27T06:32:14.787Z,99361.16
2022-08-27T06:34:43.329Z,99370.97
2022-08-27T06:37:12.290Z,99366.31
2022-08-27T06:39:40.540Z,99371.00
2022-08-27T06:42:12.670Z,99374.28
2022-08-27T06:44:44.019Z,99377.59
2022-08-27T06:47:12.449Z,99381.94
2022-08-27T06:49:43.859Z,99373.03
2022-08-27T06:52:15.642Z,99381.00
2022-08-27T06:54:45.047Z,99372.78
2022-08-27T06:57:13.241Z,99388.38
2022-08-27T06:59:42.049Z,99389.88
2022-08-27T07:02:10.829Z,99387.38
2022-08-27T07:04:39.085Z,99391.53
2022-08-27T07:07:08.274Z,99395.03
2022-08-27T07:09:36.483Z,99391.44
2022-08-27T07:12:05.733Z,99388.38
2022-08-27T07:14:38.027Z,99400.34
2022-08-27T07:17:11.262Z,99400.69
2022-08-27T07:19:44.930Z,99402.12
2022-08-27T07:22:13.780Z,99410.09
2022-08-27T07:24:42.098Z,99410.62
2022-08-27T07:27:10.653Z,99416.63
2022-08-27T07:29:38.936Z,99409.72
2022-08-27T07:32:07.025Z,99420.91
2022-08-27T07:34:35.603Z,99417.28
2022-08-27T07:37:03.830Z,99410.97
2022-08-27T07:39:32.021Z,99419.84
2022-08-27T07:42:19.239Z,99420.75
2022-08-27T07:44:47.791Z,99422.88
2022-08-27T07:47:16.496Z,99417.88
2022-08-27T07:49:44.958Z,99417.97
2022-08-27T07:52:13.277Z,99417.69
2022-08-27T07:54:42.381Z,99416.28
2022-08-27T07:57:11.527Z,99418.06
2022-08-27T07:59:39.733Z,99410.94
2022-08-27T08:02:08.206Z,99415.53
2022-08-27T08:04:36.759Z,99412.06
2022-08-27T08:07:04.965Z,99413.84
2022-08-27T08:09:33.359Z,99419.22
2022-08-27T08:12:01.943Z,99419.00
2022-08-27T08:14:32.406Z,99416.97
2022-08-27T08:17:02.190Z,99419.53
2022-08-27T08:19:32.092Z,99418.16
2022-08-27T08:22:04.982Z,99423.09
2022-08-27T08:24:36.716Z,99419.09
2022-08-27T08:27:07.473Z,99428.69
2022-08-27T08:29:37.194Z,99418.94
2022-08-27T08:32:07.730Z,99413.47
2022-08-27T08:34:36.919Z,99415.88
2022-08-27T08:37:06.776Z,99412.09
2022-08-27T08:39:36.960Z,99413.97
2022-08-27T08:42:08.237Z,99419.78
2022-08-27T08:44:48.855Z,99411.97
2022-08-27T08:47:23.828Z,99413.97
2022-08-27T08:50:00.266Z,99420.41
2022-08-27T08:52:31.267Z,99411.78
2022-08-27T08:55:35.609Z,99414.06
2022-08-27T08:58:13.048Z,99419.00
2022-08-27T09:00:44.390Z,99419.19
2022-08-27T09:03:14.903Z,99414.06
2022-08-27T09:05:50.985Z,99408.16
2022-08-27T09:08:37.623Z,99412.09
2022-08-27T09:11:16.308Z,99408.63
2022-08-27T09:14:02.962Z,99411.44
2022-08-27T09:16:32.660Z,99400.78
2022-08-27T09:19:02.947Z,99408.91
2022-08-27T09:21:55.210Z,99396.84
2022-08-27T09:24:52.650Z,99400.69
2022-08-27T09:27:22.393Z,99403.62
2022-08-27T09:29:56.139Z,99401.47
2022-08-27T09:32:32.175Z,99399.66
2022-08-27T09:35:04.278Z,99400.47
2022-08-27T09:37:52.514Z,99396.12
2022-08-27T09:40:28.017Z,99396.84
2022-08-27T09:43:21.801Z,99388.69
2022-08-27T09:45:54.440Z,99387.19
2022-08-27T09:48:35.847Z,99388.16
2022-08-27T09:51:21.833Z,99392.38
2022-08-27T09:53:56.198Z,99395.50
2022-08-27T09:56:27.818Z,99389.63
2022-08-27T09:59:07.226Z,99394.47
2022-08-27T10:01:49.166Z,99387.06
2022-08-27T10:04:26.946Z,99387.84
2022-08-27T10:06:55.392Z,99385.50
2022-08-27T10:09:32.470Z,99394.09
2022-08-27T10:12:10.997Z,99378.66
2022-08-27T10:14:45.322Z,99393.69
2022-08-27T10:17:41.192Z,99392.25
2022-08-27T10:20:30.543Z,99381.97
2022-08-27T10:23:17.053Z,99383.44
2022-08-27T10:26:00.496Z,99385.47
2022-08-27T10:28:57.768Z,99389.66
2022-08-27T10:31:53.528Z,99386.63
2022-08-27T10:34:45.184Z,99392.63
2022-08-27T10:37:19.646Z,99389.94
2022-08-27T10:39:56.961Z,99392.03
2022-08-27T10:43:04.545Z,99385.34
2022-08-27T10:46:23.829Z,99383.19
2022-08-27T10:49:09.623Z,99382.47
2022-08-27T10:52:05.241Z,99379.12
2022-08-27T10:54:45.936Z,99375.63
2022-08-27T10:57:45.490Z,99376.28
2022-08-27T11:00:24.630Z,99376.91
2022-08-27T11:03:08.961Z,99370.03
2022-08-27T11:05:47.388Z,99374.22
2022-08-27T11:08:27.811Z,99377.41
2022-08-27T11:11:25.970Z,99376.25
2022-08-27T11:13:53.195Z,99361.75
2022-08-27T11:16:45.909Z,99364.97
2022-08-27T11:19:23.487Z,99361.03
2022-08-27T11:22:04.504Z,99359.38
2022-08-27T11:24:44.258Z,99362.22
2022-08-27T11:27:18.008Z,99364.25
2022-08-27T11:30:00.390Z,99356.25
2022-08-27T11:32:40.948Z,99354.09
2022-08-27T11:35:20.575Z,99347.53
2022-08-27T11:38:09.360Z,99349.78
2022-08-27T11:40:43.541Z,99342.94
2022-08-27T11:43:26.755Z,99335.22
2022-08-27T11:45:59.168Z,99336.16
2022-08-27T11:48:31.078Z,99331.16
2022-08-27T11:51:11.109Z,99329.94
2022-08-27T11:53:51.817Z,99329.63
2022-08-27T11:56:36.969Z,99326.91
2022-08-27T11:59:28.444Z,99326.78
2022-08-27T12:02:25.979Z,99322.91
2022-08-27T12:05:07.601Z,99319.72
2022-08-27T12:07:39.990Z,99316.03
2022-08-27T12:10:28.426Z,99311.38
2022-08-27T12:13:25.592Z,99312.00
2022-08-27T12:16:02.178Z,99300.63
2022-08-27T12:18:51.908Z,99307.13
2022-08-27T12:21:32.469Z,99300.91
2022-08-27T12:24:12.616Z,99299.53
2022-08-27T12:26:53.669Z,99298.22
2022-08-27T12:29:24.107Z,99298.91
2022-08-27T12:31:55.694Z,99292.06
2022-08-27T12:34:28.864Z,99287.97
2022-08-27T12:36:57.334Z,99291.44
2022-08-27T12:39:32.452Z,99287.06
2022-08-27T12:42:00.978Z,99278.91
2022-08-27T12:44:31.458Z,99279.09
2022-08-27T12:47:05.525Z,99277.37
2022-08-27T12:49:42.170Z,99271.03
2022-08-27T12:52:29.264Z,99268.72
2022-08-27T12:55:21.659Z,99274.47
2022-08-27T12:58:04.437Z,99254.50
2022-08-27T13:01:07.832Z,99257.56
2022-08-27T13:03:41.593Z,99260.22
2022-08-27T13:06:44.681Z,99262.13
2022-08-27T13:09:13.213Z,99256.75
2022-08-27T13:11:48.774Z,99249.41
2022-08-27T13:14:22.384Z,99256.28
2022-08-27T13:17:05.788Z,99258.41
2022-08-27T13:19:36.833Z,99257.88
2022-08-27T13:22:07.161Z,99254.91
2022-08-27T13:24:45.611Z,99262.19
2022-08-27T13:27:14.808Z,99256.00
2022-08-27T13:29:43.651Z,99254.37
2022-08-27T13:32:15.248Z,99264.41
2022-08-27T13:34:44.137Z,99252.25
2022-08-27T13:37:25.367Z,99265.03
2022-08-27T13:39:56.327Z,99264.34
2022-08-27T13:42:25.527Z,99263.75
2022-08-27T13:45:00.955Z,99265.22
2022-08-27T13:47:30.734Z,99255.06
2022-08-27T13:50:08.982Z,99261.34
2022-08-27T13:53:00.762Z,99254.25
2022-08-27T13:55:30.421Z,99254.69
2022-08-27T13:58:18.816Z,99259.09
2022-08-27T14:00:47.411Z,99260.59
2022-08-27T14:03:32.483Z,99254.56
2022-08-27T14:06:01.852Z,99257.38
2022-08-27T14:08:33.869Z,99250.53
2022-08-27T14:11:10.025Z,99254.81
2022-08-27T14:13:48.601Z,99258.84
2022-08-27T14:16:32.343Z,99255.91
2022-08-27T14:19:11.553Z,99250.34
2022-08-27T14:21:42.048Z,99253.34
2022-08-27T14:24:12.071Z,99258.53
2022-08-27T14:26:40.518Z,99258.53
2022-08-27T14:29:12.120Z,99257.69
2022-08-27T14:31:41.724Z,99246.66
2022-08-27T14:34:10.238Z,99253.22
2022-08-27T14:36:40.703Z,99255.16
2022-08-27T14:39:10.560Z,99257.00
2022-08-27T14:41:39.678Z,99250.12
2022-08-27T14:44:08.410Z,99257.31
2022-08-27T14:46:41.555Z,99255.91
2022-08-27T14:49:20.125Z,99263.59
2022-08-27T14:51:49.121Z,99260.59
2022-08-27T14:54:17.873Z,99263.59
2022-08-27T14:56:46.445Z,99256.91
2022-08-27T14:59:14.600Z,99254.63
2022-08-27T15:01:43.450Z,99259.38
2022-08-27T15:04:12.137Z,99260.19
2022-08-27T15:06:40.296Z,99257.72
2022-08-27T15:09:09.137Z,99256.22
2022-08-27T15:11:40.451Z,99259.72
2022-08-27T15:14:16.381Z,99258.12
2022-08-27T15:16:44.820Z,99266.31
2022-08-27T15:19:15.420Z,99271.56
2022-08-27T15:21:47.500Z,99267.75
2022-08-27T15:24:25.624Z,99275.53
2022-08-27T15:26:59.776Z,99271.34
2022-08-27T15:29:28.344Z,99274.75
2022-08-27T15:31:57.353Z,99268.03
2022-08-27T15:34:25.627Z,99273.22
2022-08-27T15:36:54.415Z,99266.72
2022-08-27T15:39:22.814Z,99277.87
2022-08-27T15:42:05.919Z,99270.88
2022-08-27T15:44:38.757Z,99270.37
2022-08-27T15:47:07.377Z,99283.41
2022-08-27T15:49:36.206Z,99273.22
2022-08-27T15:52:05.335Z,99277.56
2022-08-27T15:54:34.250Z,99278.25
2022-08-27T15:57:03.850Z,99272.88
2022-08-27T15:59:33.173Z,99267.91
2022-08-27T16:02:04.391Z,99272.25
2022-08-27T16:04:32.921Z,99275.81
2022-08-27T16:07:01.025Z,99277.28
2022-08-27T16:09:29.235Z,99268.22
2022-08-27T16:11:58.529Z,99275.81
2022-08-27T16:14:26.638Z,99271.31
2022-08-27T16:16:57.793Z,99265.38
2022-08-27T16:19:26.713Z,99272.91
2022-08-27T16:21:54.764Z,99274.78
2022-08-27T16:24:23.506Z,99269.56
2022-08-27T16:26:52.036Z,99270.81
2022-08-27T16:29:20.218Z,99272.25
2022-08-27T16:31:49.885Z,99269.84
2022-08-27T16:34:23.904Z,99282.09
2022-08-27T16:36:52.357Z,99285.69
2022-08-27T16:39:20.874Z,99272.13
2022-08-27T16:41:50.000Z,99282.56
2022-08-27T16:44:18.215Z,99281.06
2022-08-27T16:46:46.680Z,99284.13
2022-08-27T16:49:33.745Z,99285.56
2022-08-27T16:52:03.169Z,99281.72
2022-08-27T16:54:31.183Z,99279.75
2022-08-27T16:57:00.119Z,99282.97
2022-08-27T16:59:28.770Z,99283.47
2022-08-27T17:01:57.459Z,99272.53
2022-08-27T17:04:30.489Z,99283.03
2022-08-27T17:07:03.474Z,99280.00
2022-08-27T17:09:31.957Z,99281.56
2022-08-27T17:12:00.952Z,99280.06
2022-08-27T17:14:34.972Z,99290.25
2022-08-27T17:17:04.542Z,99298.03
2022-08-27T17:19:34.892Z,99295.75
2022-08-27T17:22:04.569Z,99298.56
2022-08-27T17:24:33.023Z,99305.09
2022-08-27T17:27:01.659Z,99307.44
2022-08-27T17:29:30.026Z,99311.78
2022-08-27T17:31:58.538Z,99310.81
2022-08-27T17:34:27.000Z,99316.66
2022-08-27T17:36:55.296Z,99320.41
2022-08-27T17:39:23.705Z,99321.81
2022-08-27T17:41:52.998Z,99322.66
2022-08-27T17:44:35.183Z,99327.00
2022-08-27T17:47:07.143Z,99332.09
2022-08-27T17:49:36.406Z,99341.44
2022-08-27T17:52:10.653Z,99346.31
2022-08-27T17:54:47.836Z,99349.81
2022-08-27T17:57:27.068Z,99356.50
2022-08-27T17:59:57.963Z,99354.06
2022-08-27T18:02:34.474Z,99352.97
2022-08-27T18:05:04.732Z,99357.25
2022-08-27T18:07:36.676Z,99360.19
2022-08-27T18:10:10.173Z,99359.66
2022-08-27T18:12:41.975Z,99358.88
2022-08-27T18:15:31.560Z,99358.63
2022-08-27T18:18:00.671Z,99365.03
2022-08-27T18:20:31.204Z,99366.59
2022-08-27T18:23:00.247Z,99374.88
2022-08-27T18:25:35.375Z,99384.78
2022-08-27T18:28:08.101Z,99385.56
2022-08-27T18:30:39.594Z,99383.66
2022-08-27T18:33:08.598Z,99391.63
2022-08-27T18:35:37.902Z,99385.19
2022-08-27T18:38:06.650Z,99384.97
2022-08-27T18:40:47.719Z,99391.53
2022-08-27T18:43:17.208Z,99400.03
2022-08-27T18:45:46.021Z,99400.78
2022-08-27T18:48:18.995Z,99400.44
2022-08-27T18:50:50.551Z,99397.25
2022-08-27T18:53:22.977Z,99397.22
2022-08-27T18:55:52.618Z,99397.19
2022-08-27T18:58:21.755Z,99397.75
2022-08-27T19:00:54.075Z,99390.41
2022-08-27T19:03:31.447Z,99397.75
2022-08-27T19:06:00.602Z,99400.56
2022-08-27T19:08:29.503Z,99398.53
2022-08-27T19:10:57.926Z,99400.88
2022-08-27T19:13:26.457Z,99393.03
2022-08-27T19:15:59.461Z,99391.63
2022-08-27T19:18:29.694Z,99388.22
2022-08-27T19:20:58.886Z,99387.66
2022-08-27T19:23:27.415Z,99392.16
2022-08-27T19:25:58.016Z,99387.91
2022-08-27T19:28:38.631Z,99391.69
2022-08-27T19:31:08.709Z,99382.72
2022-08-27T19:33:37.931Z,99386.47
2022-08-27T19:36:12.513Z,99386.22
2022-08-27T19:38:45.240Z,99374.56
2022-08-27T19:41:14.416Z,99374.06
2022-08-27T19:43:44.054Z,99376.09
2022-08-27T19:46:17.874Z,99377.97
2022-08-27T19:48:46.173Z,99385.69
2022-08-27T19:51:14.816Z,99381.91
2022-08-27T19:53:43.363Z,99384.00
2022-08-27T19:56:15.874Z,99383.47
2022-08-27T19:58:44.839Z,99379.53
2022-08-27T20:01:12.979Z,99383.25
2022-08-27T20:03:41.986Z,99371.03
2022-08-27T20:06:10.291Z,99369.44
2022-08-27T20:08:38.554Z,99379.56
2022-08-27T20:11:06.990Z,99384.00
2022-08-27T20:13:35.813Z,99388.69
2022-08-27T20:16:06.798Z,99381.97
2022-08-27T20:18:42.975Z,99387.91
2022-08-27T20:21:11.410Z,99383.22
2022-08-27T20:23:39.623Z,99376.19
2022-08-27T20:26:07.930Z,99383.34
2022-08-27T20:28:40.346Z,99383.87
2022-08-27T20:31:09.094Z,99388.19
2022-08-27T20:33:37.644Z,99380.81
2022-08-27T20:36:10.155Z,99387.12
2022-08-27T20:38:39.474Z,99395.66
2022-08-27T20:41:08.358Z,99395.19
2022-08-27T20:43:37.127Z,99398.84
2022-08-27T20:46:06.109Z,99398.84
2022-08-27T20:48:38.662Z,99402.69
2022-08-27T20:51:07.357Z,99411.88
2022-08-27T20:53:36.333Z,99399.97
2022-08-27T20:56:04.819Z,99406.41
2022-08-27T20:58:52.525Z,99406.56
2022-08-27T21:01:21.108Z,99410.91
2022-08-27T21:03:51.983Z,99405.13
2022-08-27T21:06:24.947Z,99400.47
2022-08-27T21:08:55.142Z,99405.69
2022-08-27T21:11:23.499Z,99412.97
2022-08-27T21:13:56.472Z,99411.50
2022-08-27T21:16:26.316Z,99412.63
2022-08-27T21:18:55.749Z,99410.06
2022-08-27T21:21:24.265Z,99407.47
2022-08-27T21:23:52.860Z,99404.94
2022-08-27T21:26:23.048Z,99410.12
2022-08-27T21:28:55.576Z,99407.47
2022-08-27T21:31:25.727Z,99414.13
2022-08-27T21:33:54.414Z,99417.75
2022-08-27T21:36:22.923Z,99422.81
2022-08-27T21:38:51.512Z,99431.91
2022-08-27T21:41:22.151Z,99419.59
2022-08-27T21:43:50.835Z,99427.84
2022-08-27T21:46:20.138Z,99423.22
2022-08-27T21:48:57.783Z,99423.19
2022-08-27T21:51:27.816Z,99424.38
2022-08-27T21:53:57.027Z,99419.81
2022-08-27T21:56:28.933Z,99429.34
2022-08-27T21:58:57.410Z,99426.94
2022-08-27T22:01:25.466Z,99424.19
2022-08-27T22:03:55.391Z,99414.63
2022-08-27T22:06:23.493Z,99420.97
2022-08-27T22:08:51.683Z,99421.37
2022-08-27T22:11:23.953Z,99423.59
2022-08-27T22:13:53.344Z,99418.12
2022-08-27T22:16:22.356Z,99421.56
2022-08-27T22:18:54.254Z,99420.66
2022-08-27T22:21:24.839Z,99409.69
2022-08-27T22:23:53.428Z,99416.78
2022-08-27T22:26:22.041Z,99413.66
2022-08-27T22:28:50.940Z,99407.97
2022-08-27T22:31:19.333Z,99414.03
2022-08-27T22:33:48.047Z,99405.94
2022-08-27T22:36:16.642Z,99402.47
2022-08-27T22:38:44.805Z,99393.34
2022-08-27T22:41:13.947Z,99396.38
2022-08-27T22:43:42.642Z,99403.75
2022-08-27T22:46:12.058Z,99393.56
2022-08-27T22:48:40.306Z,99409.62
2022-08-27T22:51:09.222Z,99409.97
2022-08-27T22:53:40.487Z,99401.19
2022-08-27T22:56:09.396Z,99404.31
2022-08-27T22:58:37.559Z,99403.25
2022-08-27T23:01:07.696Z,99407.28
2022-08-27T23:03:36.398Z,99405.34
2022-08-27T23:06:04.688Z,99407.09
2022-08-27T23:08:32.998Z,99406.25
2022-08-27T23:11:03.197Z,99405.72
2022-08-27T23:13:32.483Z,99403.19
2022-08-27T23:16:03.044Z,99405.72
2022-08-27T23:18:32.365Z,99403.59
2022-08-27T23:21:00.475Z,99406.59
2022-08-27T23:23:30.790Z,99401.75
2022-08-27T23:26:18.330Z,99405.94
2022-08-27T23:28:46.742Z,99415.31
2022-08-27T23:31:15.779Z,99413.44
2022-08-27T23:33:44.348Z,99417.72
2022-08-27T23:36:13.045Z,99410.69
2022-08-27T23:38:41.700Z,99412.19
2022-08-27T23:41:10.715Z,99411.59
2022-08-27T23:43:39.068Z,99408.44
2022-08-27T23:46:07.832Z,99421.00
2022-08-27T23:48:36.394Z,99447.03
2022-08-27T23:51:04.624Z,99501.03
2022-08-27T23:53:33.123Z,99497.00
2022-08-27T23:56:01.356Z,99501.34
2022-08-27T23:58:29.489Z,99490.84
